sensor_id;sensor_type;location;lat;lon;timestamp;pressure;altitude;pressure_sealevel;temperature;humidity
71966;BME280;59836;52.132;5.442;2023-10-08T00:01:16;102269.41;;;17.20;100.00
71966;BME280;59836;52.132;5.442;2023-10-08T00:03:43;102270.25;;;17.21;100.00
71966;BME280;59836;52.132;5.442;2023-10-08T00:06:18;102282.31;;;17.20;100.00
71966;BME280;59836;52.132;5.442;2023-10-08T00:08:49;102296.84;;;17.20;100.00
71966;BME280;59836;52.132;5.442;2023-10-08T00:11:17;102308.66;;;17.21;100.00
71966;BME280;59836;52.132;5.442;2023-10-08T00:13:44;102315.22;;;17.20;100.00
71966;BME280;59836;52.132;5.442;2023-10-08T00:16:12;102312.47;;;17.20;100.00
71966;BME280;59836;52.132;5.442;2023-10-08T00:18:44;102326.19;;;17.20;100.00
71966;BME280;59836;52.132;5.442;2023-10-08T00:21:20;102319.06;;;17.19;100.00
71966;BME280;59836;52.132;5.442;2023-10-08T00:23:53;102309.75;;;17.20;100.00
71966;BME280;59836;52.132;5.442;2023-10-08T00:26:27;102300.69;;;17.19;100.00
71966;BME280;59836;52.132;5.442;2023-10-08T00:28:56;102313.28;;;17.20;100.00
71966;BME280;59836;52.132;5.442;2023-10-08T00:31:23;102310.53;;;17.20;100.00
71966;BME280;59836;52.132;5.442;2023-10-08T00:33:57;102315.22;;;17.20;100.00
71966;BME280;59836;52.132;5.442;2023-10-08T00:36:24;102305.34;;;17.19;100.00
71966;BME280;59836;52.132;5.442;2023-10-08T00:38:51;102310.84;;;17.19;100.00
71966;BME280;59836;52.132;5.442;2023-10-08T00:41:20;102291.91;;;17.17;100.00
71966;BME280;59836;52.132;5.442;2023-10-08T00:43:50;102291.91;;;17.17;100.00
71966;BME280;59836;52.132;5.442;2023-10-08T00:46:18;102301.25;;;17.16;100.00
71966;BME280;59836;52.132;5.442;2023-10-08T00:48:53;102287.81;;;17.15;100.00
71966;BME280;59836;52.132;5.442;2023-10-08T00:51:25;102281.25;;;17.16;100.00
71966;BME280;59836;52.132;5.442;2023-10-08T00:54:02;102289.47;;;17.16;100.00
71966;BME280;59836;52.132;5.442;2023-10-08T00:56:36;102274.91;;;17.15;100.00
71966;BME280;59836;52.132;5.442;2023-10-08T00:59:21;102271.38;;;17.15;100.00
71966;BME280;59836;52.132;5.442;2023-10-08T01:01:49;102265.88;;;17.15;100.00
71966;BME280;59836;52.132;5.442;2023-10-08T01:04:25;102269.72;;;17.14;100.00
71966;BME280;59836;52.132;5.442;2023-10-08T01:07:00;102264.25;;;17.14;100.00
71966;BME280;59836;52.132;5.442;2023-10-08T01:09:39;102263.72;;;17.11;100.00
71966;BME280;59836;52.132;5.442;2023-10-08T01:12:19;102282.91;;;17.11;100.00
71966;BME280;59836;52.132;5.442;2023-10-08T01:15:02;102262.06;;;17.10;100.00
71966;BME280;59836;52.132;5.442;2023-10-08T01:17:42;102252.19;;;17.09;100.00
71966;BME280;59836;52.132;5.442;2023-10-08T01:20:19;102258.78;;;17.08;100.00
71966;BME280;59836;52.132;5.442;2023-10-08T01:23:11;102256.03;;;17.08;100.00
71966;BME280;59836;52.132;5.442;2023-10-08T01:25:40;102259.88;;;17.07;100.00
71966;BME280;59836;52.132;5.442;2023-10-08T01:28:08;102261.53;;;17.08;100.00
71966;BME280;59836;52.132;5.442;2023-10-08T01:30:42;102267.56;;;17.05;100.00
71966;BME280;59836;52.132;5.442;2023-10-08T01:33:09;102277.69;;;17.05;100.00
71966;BME280;59836;52.132;5.442;2023-10-08T01:35:40;102277.97;;;17.03;100.00
71966;BME280;59836;52.132;5.442;2023-10-08T01:38:07;102292.78;;;17.02;100.00
71966;BME280;59836;52.132;5.442;2023-10-08T01:40:35;102292.25;;;17.00;100.00
71966;BME280;59836;52.132;5.442;2023-10-08T01:43:01;102288.41;;;17.01;100.00
71966;BME280;59836;52.132;5.442;2023-10-08T01:45:31;102296.09;;;16.99;100.00
71966;BME280;59836;52.132;5.442;2023-10-08T01:47:58;102288.97;;;16.98;100.00
71966;BME280;59836;52.132;5.442;2023-10-08T01:50:25;102305.66;;;16.96;100.00
71966;BME280;59836;52.132;5.442;2023-10-08T01:52:52;102305.94;;;16.95;100.00
71966;BME280;59836;52.132;5.442;2023-10-08T01:55:18;102311.41;;;16.95;100.00
71966;BME280;59836;52.132;5.442;2023-10-08T01:57:47;102330.03;;;16.93;100.00
71966;BME280;59836;52.132;5.442;2023-10-08T02:00:15;102330.03;;;16.93;100.00
71966;BME280;59836;52.132;5.442;2023-10-08T02:02:47;102335.53;;;16.93;100.00
71966;BME280;59836;52.132;5.442;2023-10-08T02:05:14;102340.75;;;16.89;100.00
71966;BME280;59836;52.132;5.442;2023-10-08T02:07:41;102346.22;;;16.89;100.00
71966;BME280;59836;52.132;5.442;2023-10-08T02:10:11;102350.06;;;16.88;100.00
71966;BME280;59836;52.132;5.442;2023-10-08T02:12:38;102335.53;;;16.88;100.00
71966;BME280;59836;52.132;5.442;2023-10-08T02:15:05;102344.31;;;16.85;100.00
71966;BME280;59836;52.132;5.442;2023-10-08T02:17:35;102341.31;;;16.86;100.00
71966;BME280;59836;52.132;5.442;2023-10-08T02:20:01;102344.59;;;16.83;100.00
71966;BME280;59836;52.132;5.442;2023-10-08T02:22:32;102343.50;;;16.84;100.00
71966;BME280;59836;52.132;5.442;2023-10-08T02:25:02;102346.50;;;16.82;100.00
71966;BME280;59836;52.132;5.442;2023-10-08T02:27:30;102328.41;;;16.81;100.00
71966;BME280;59836;52.132;5.442;2023-10-08T02:29:59;102297.72;;;16.79;100.00
71966;BME280;59836;52.132;5.442;2023-10-08T02:32:26;102347.88;;;16.80;100.00
71966;BME280;59836;52.132;5.442;2023-10-08T02:34:53;102346.78;;;16.81;100.00
71966;BME280;59836;52.132;5.442;2023-10-08T02:37:19;102360.50;;;16.81;100.00
71966;BME280;59836;52.132;5.442;2023-10-08T02:39:46;102354.72;;;16.82;100.00
71966;BME280;59836;52.132;5.442;2023-10-08T02:42:13;102337.72;;;16.80;100.00
71966;BME280;59836;52.132;5.442;2023-10-08T02:44:40;102325.13;;;16.79;100.00
71966;BME280;59836;52.132;5.442;2023-10-08T02:47:09;102304.03;;;16.80;100.00
71966;BME280;59836;52.132;5.442;2023-10-08T02:49:40;102303.22;;;16.79;100.00
71966;BME280;59836;52.132;5.442;2023-10-08T02:52:07;102317.75;;;16.80;100.00
71966;BME280;59836;52.132;5.442;2023-10-08T02:54:35;102359.66;;;16.80;100.00
71966;BME280;59836;52.132;5.442;2023-10-08T02:57:04;102344.84;;;16.81;100.00
71966;BME280;59836;52.132;5.442;2023-10-08T02:59:36;102347.88;;;16.80;100.00
71966;BME280;59836;52.132;5.442;2023-10-08T03:02:12;102356.66;;;16.82;100.00
71966;BME280;59836;52.132;5.442;2023-10-08T03:04:42;102344.03;;;16.81;100.00
71966;BME280;59836;52.132;5.442;2023-10-08T03:07:15;102323.78;;;16.82;100.00
71966;BME280;59836;52.132;5.442;2023-10-08T03:09:50;102357.47;;;16.82;100.00
71966;BME280;59836;52.132;5.442;2023-10-08T03:12:17;102351.97;;;16.82;100.00
71966;BME280;59836;52.132;5.442;2023-10-08T03:14:44;102342.66;;;16.83;100.00
71966;BME280;59836;52.132;5.442;2023-10-08T03:17:30;102354.72;;;16.82;100.00
71966;BME280;59836;52.132;5.442;2023-10-08T03:19:56;102330.34;;;16.81;100.00
71966;BME280;59836;52.132;5.442;2023-10-08T03:22:43;102344.84;;;16.81;100.00
71966;BME280;59836;52.132;5.442;2023-10-08T03:25:12;102351.44;;;16.80;100.00
71966;BME280;59836;52.132;5.442;2023-10-08T03:27:44;102325.13;;;16.79;100.00
71966;BME280;59836;52.132;5.442;2023-10-08T03:30:10;102332.25;;;16.80;100.00
71966;BME280;59836;52.132;5.442;2023-10-08T03:32:42;102323.47;;;16.78;100.00
71966;BME280;59836;52.132;5.442;2023-10-08T03:35:11;102337.19;;;16.78;100.00
71966;BME280;59836;52.132;5.442;2023-10-08T03:37:39;102354.72;;;16.77;100.00
71966;BME280;59836;52.132;5.442;2023-10-08T03:40:12;102379.38;;;16.77;100.00
71966;BME280;59836;52.132;5.442;2023-10-08T03:42:52;102399.41;;;16.78;100.00
71966;BME280;59836;52.132;5.442;2023-10-08T03:45:22;102383.75;;;16.78;100.00
71966;BME280;59836;52.132;5.442;2023-10-08T03:48:07;102396.38;;;16.79;100.00
71966;BME280;59836;52.132;5.442;2023-10-08T03:50:38;102373.63;;;16.79;100.00
71966;BME280;59836;52.132;5.442;2023-10-08T03:53:09;102385.41;;;16.79;100.00
71966;BME280;59836;52.132;5.442;2023-10-08T03:55:39;102388.16;;;16.79;100.00
71966;BME280;59836;52.132;5.442;2023-10-08T03:58:09;102398.00;;;16.80;100.00
71966;BME280;59836;52.132;5.442;2023-10-08T04:00:54;102406.78;;;16.82;100.00
71966;BME280;59836;52.132;5.442;2023-10-08T04:03:35;102404.31;;;16.81;100.00
71966;BME280;59836;52.132;5.442;2023-10-08T04:06:25;102421.03;;;16.79;100.00
71966;BME280;59836;52.132;5.442;2023-10-08T04:08:57;102424.84;;;16.73;100.00
71966;BME280;59836;52.132;5.442;2023-10-08T04:11:39;102442.38;;;16.67;100.00
71966;BME280;59836;52.132;5.442;2023-10-08T04:14:15;102439.94;;;16.65;100.00
71966;BME280;59836;52.132;5.442;2023-10-08T04:16:46;102450.03;;;16.60;100.00
71966;BME280;59836;52.132;5.442;2023-10-08T04:19:13;102460.44;;;16.52;100.00
71966;BME280;59836;52.132;5.442;2023-10-08T04:21:40;102455.47;;;16.44;100.00
71966;BME280;59836;52.132;5.442;2023-10-08T04:24:09;102449.19;;;16.38;100.00
71966;BME280;59836;52.132;5.442;2023-10-08T04:26:35;102440.69;;;16.35;100.00
71966;BME280;59836;52.132;5.442;2023-10-08T04:29:02;102443.97;;;16.32;100.00
71966;BME280;59836;52.132;5.442;2023-10-08T04:31:29;102451.06;;;16.28;100.00
71966;BME280;59836;52.132;5.442;2023-10-08T04:34:06;102439.56;;;16.26;100.00
71966;BME280;59836;52.132;5.442;2023-10-08T04:36:44;102431.06;;;16.22;100.00
71966;BME280;59836;52.132;5.442;2023-10-08T04:39:14;102428.59;;;16.20;100.00
71966;BME280;59836;52.132;5.442;2023-10-08T04:41:48;102430.22;;;16.16;100.00
71966;BME280;59836;52.132;5.442;2023-10-08T04:44:20;102420.38;;;16.15;100.00
71966;BME280;59836;52.132;5.442;2023-10-08T04:46:48;102405.03;;;16.14;100.00
71966;BME280;59836;52.132;5.442;2023-10-08T04:49:19;102403.41;;;16.13;100.00
71966;BME280;59836;52.132;5.442;2023-10-08T04:51:57;102409.94;;;16.07;100.00
71966;BME280;59836;52.132;5.442;2023-10-08T04:54:28;102430.19;;;16.06;100.00
71966;BME280;59836;52.132;5.442;2023-10-08T04:56:58;102450.16;;;16.06;100.00
71966;BME280;59836;52.132;5.442;2023-10-08T04:59:27;102463.03;;;16.06;100.00
71966;BME280;59836;52.132;5.442;2023-10-08T05:02:00;102461.09;;;16.06;100.00
71966;BME280;59836;52.132;5.442;2023-10-08T05:04:47;102451.00;;;16.07;100.00
71966;BME280;59836;52.132;5.442;2023-10-08T05:07:34;102460.28;;;16.06;100.00
71966;BME280;59836;52.132;5.442;2023-10-08T05:10:26;102461.94;;;16.07;100.00
71966;BME280;59836;52.132;5.442;2023-10-08T05:12:54;102461.94;;;16.07;100.00
71966;BME280;59836;52.132;5.442;2023-10-08T05:15:30;102450.44;;;16.05;100.00
71966;BME280;59836;52.132;5.442;2023-10-08T05:18:04;102458.66;;;16.05;100.00
71966;BME280;59836;52.132;5.442;2023-10-08T05:20:51;102469.84;;;16.03;100.00
71966;BME280;59836;52.132;5.442;2023-10-08T05:23:19;102474.50;;;16.03;100.00
71966;BME280;59836;52.132;5.442;2023-10-08T05:25:52;102485.72;;;16.01;100.00
71966;BME280;59836;52.132;5.442;2023-10-08T05:28:36;102496.63;;;15.96;100.00
71966;BME280;59836;52.132;5.442;2023-10-08T05:31:16;102499.34;;;15.91;100.00
71966;BME280;59836;52.132;5.442;2023-10-08T05:33:43;102496.25;;;15.82;100.00
71966;BME280;59836;52.132;5.442;2023-10-08T05:36:28;102498.41;;;15.75;100.00
71966;BME280;59836;52.132;5.442;2023-10-08T05:39:02;102499.44;;;15.69;100.00
71966;BME280;59836;52.132;5.442;2023-10-08T05:41:51;102509.28;;;15.64;100.00
71966;BME280;59836;52.132;5.442;2023-10-08T05:44:21;102516.63;;;15.59;100.00
71966;BME280;59836;52.132;5.442;2023-10-08T05:46:48;102509.19;;;15.54;100.00
71966;BME280;59836;52.132;5.442;2023-10-08T05:49:21;102526.13;;;15.51;100.00
71966;BME280;59836;52.132;5.442;2023-10-08T05:51:56;102532.63;;;15.45;100.00
71966;BME280;59836;52.132;5.442;2023-10-08T05:54:40;102565.16;;;15.41;100.00
71966;BME280;59836;52.132;5.442;2023-10-08T05:57:24;102562.09;;;15.38;100.00
71966;BME280;59836;52.132;5.442;2023-10-08T06:00:06;102534.22;;;15.35;100.00
71966;BME280;59836;52.132;5.442;2023-10-08T06:02:33;102511.81;;;15.33;100.00
71966;BME280;59836;52.132;5.442;2023-10-08T06:05:02;102505.22;;;15.29;100.00
71966;BME280;59836;52.132;5.442;2023-10-08T06:07:52;102501.59;;;15.24;100.00
71966;BME280;59836;52.132;5.442;2023-10-08T06:10:27;102517.41;;;15.22;100.00
71966;BME280;59836;52.132;5.442;2023-10-08T06:13:09;102517.97;;;15.24;100.00
71966;BME280;59836;52.132;5.442;2023-10-08T06:15:36;102542.84;;;15.22;100.00
71966;BME280;59836;52.132;5.442;2023-10-08T06:18:16;102549.94;;;15.18;100.00
71966;BME280;59836;52.132;5.442;2023-10-08T06:20:49;102563.53;;;15.13;99.32
71966;BME280;59836;52.132;5.442;2023-10-08T06:23:22;102568.16;;;15.12;100.00
71966;BME280;59836;52.132;5.442;2023-10-08T06:25:53;102568.97;;;15.08;98.75
71966;BME280;59836;52.132;5.442;2023-10-08T06:28:42;102567.88;;;15.09;99.60
71966;BME280;59836;52.132;5.442;2023-10-08T06:31:09;102572.97;;;15.00;99.52
71966;BME280;59836;52.132;5.442;2023-10-08T06:33:44;102575.97;;;14.98;99.67
71966;BME280;59836;52.132;5.442;2023-10-08T06:36:11;102569.13;;;15.01;99.28
71966;BME280;59836;52.132;5.442;2023-10-08T06:38:47;102576.53;;;15.00;99.84
71966;BME280;59836;52.132;5.442;2023-10-08T06:41:17;102569.41;;;14.99;99.58
71966;BME280;59836;52.132;5.442;2023-10-08T06:44:04;102574.38;;;15.02;99.97
71966;BME280;59836;52.132;5.442;2023-10-08T06:46:41;102587.47;;;15.00;99.23
71966;BME280;59836;52.132;5.442;2023-10-08T06:49:09;102587.47;;;15.00;98.69
71966;BME280;59836;52.132;5.442;2023-10-08T06:51:40;102574.88;;;14.99;98.66
71966;BME280;59836;52.132;5.442;2023-10-08T06:54:10;102581.09;;;14.95;98.48
71966;BME280;59836;52.132;5.442;2023-10-08T06:56:41;102577.56;;;14.94;98.72
71966;BME280;59836;52.132;5.442;2023-10-08T06:59:13;102588.47;;;14.94;98.98
71966;BME280;59836;52.132;5.442;2023-10-08T07:01:40;102580.84;;;14.96;98.45
71966;BME280;59836;52.132;5.442;2023-10-08T07:04:08;102585.25;;;14.97;98.42
71966;BME280;59836;52.132;5.442;2023-10-08T07:06:42;102586.31;;;14.96;98.42
71966;BME280;59836;52.132;5.442;2023-10-08T07:09:11;102599.72;;;14.98;98.87
71966;BME280;59836;52.132;5.442;2023-10-08T07:11:56;102598.06;;;14.97;98.94
71966;BME280;59836;52.132;5.442;2023-10-08T07:14:24;102594.25;;;14.98;99.28
71966;BME280;59836;52.132;5.442;2023-10-08T07:16:54;102603.53;;;14.97;98.89
71966;BME280;59836;52.132;5.442;2023-10-08T07:19:21;102591.78;;;14.96;98.95
71966;BME280;59836;52.132;5.442;2023-10-08T07:21:50;102606.00;;;14.98;99.02
71966;BME280;59836;52.132;5.442;2023-10-08T07:24:20;102612.56;;;14.97;99.41
71966;BME280;59836;52.132;5.442;2023-10-08T07:26:48;102619.09;;;14.96;99.12
71966;BME280;59836;52.132;5.442;2023-10-08T07:29:16;102603.78;;;14.95;98.61
71966;BME280;59836;52.132;5.442;2023-10-08T07:31:45;102608.19;;;14.96;99.38
71966;BME280;59836;52.132;5.442;2023-10-08T07:34:19;102614.97;;;14.94;98.85
71966;BME280;59836;52.132;5.442;2023-10-08T07:36:54;102609.25;;;14.95;98.88
71966;BME280;59836;52.132;5.442;2023-10-08T07:39:22;102605.19;;;14.98;99.71
71966;BME280;59836;52.132;5.442;2023-10-08T07:41:59;102609.31;;;15.00;99.54
71966;BME280;59836;52.132;5.442;2023-10-08T07:44:27;102607.97;;;15.03;98.81
71966;BME280;59836;52.132;5.442;2023-10-08T07:46:59;102603.34;;;15.03;99.04
71966;BME280;59836;52.132;5.442;2023-10-08T07:49:26;102625.19;;;15.03;98.87
71966;BME280;59836;52.132;5.442;2023-10-08T07:51:57;102619.72;;;15.03;98.15
71966;BME280;59836;52.132;5.442;2023-10-08T07:54:26;102619.72;;;15.03;98.08
71966;BME280;59836;52.132;5.442;2023-10-08T07:56:56;102635.28;;;15.03;98.44
71966;BME280;59836;52.132;5.442;2023-10-08T07:59:36;102638.59;;;15.05;98.73
71966;BME280;59836;52.132;5.442;2023-10-08T08:02:24;102636.94;;;15.04;98.71
71966;BME280;59836;52.132;5.442;2023-10-08T08:04:53;102641.09;;;15.07;98.28
71966;BME280;59836;52.132;5.442;2023-10-08T08:07:20;102646.34;;;15.13;98.60
71966;BME280;59836;52.132;5.442;2023-10-08T08:09:52;102644.44;;;15.14;98.77
71966;BME280;59836;52.132;5.442;2023-10-08T08:12:26;102652.38;;;15.15;98.34
71966;BME280;59836;52.132;5.442;2023-10-08T08:14:55;102653.22;;;15.16;98.13
71966;BME280;59836;52.132;5.442;2023-10-08T08:17:21;102660.28;;;15.12;98.54
71966;BME280;59836;52.132;5.442;2023-10-08T08:19:51;102661.94;;;15.13;98.37
71966;BME280;59836;52.132;5.442;2023-10-08T08:22:20;102667.91;;;15.10;96.88
71966;BME280;59836;52.132;5.442;2023-10-08T08:24:57;102667.91;;;15.10;97.44
71966;BME280;59836;52.132;5.442;2023-10-08T08:27:33;102665.75;;;15.12;97.57
71966;BME280;59836;52.132;5.442;2023-10-08T08:30:03;102667.38;;;15.13;96.90
71966;BME280;59836;52.132;5.442;2023-10-08T08:32:44;102682.94;;;15.12;96.78
71966;BME280;59836;52.132;5.442;2023-10-08T08:35:12;102687.59;;;15.12;96.68
71966;BME280;59836;52.132;5.442;2023-10-08T08:37:43;102694.72;;;15.13;97.35
71966;BME280;59836;52.132;5.442;2023-10-08T08:40:13;102707.31;;;15.14;96.82
71966;BME280;59836;52.132;5.442;2023-10-08T08:42:50;102709.47;;;15.12;95.94
71966;BME280;59836;52.132;5.442;2023-10-08T08:45:20;102710.53;;;15.11;96.88
71966;BME280;59836;52.132;5.442;2023-10-08T08:47:47;102704.00;;;15.12;96.72
71966;BME280;59836;52.132;5.442;2023-10-08T08:50:15;102706.72;;;15.12;95.26
71966;BME280;59836;52.132;5.442;2023-10-08T08:52:41;102702.91;;;15.13;95.75
71966;BME280;59836;52.132;5.442;2023-10-08T08:55:09;102700.50;;;15.16;95.82
71966;BME280;59836;52.132;5.442;2023-10-08T08:57:44;102691.22;;;15.17;95.68
71966;BME280;59836;52.132;5.442;2023-10-08T09:00:17;102684.41;;;15.20;95.29
71966;BME280;59836;52.132;5.442;2023-10-08T09:02:45;102680.59;;;15.21;95.34
71966;BME280;59836;52.132;5.442;2023-10-08T09:05:15;102683.91;;;15.23;95.58
71966;BME280;59836;52.132;5.442;2023-10-08T09:10:50;102688.28;;;15.24;95.53
71966;BME280;59836;52.132;5.442;2023-10-08T09:13:37;102684.22;;;15.27;95.67
71966;BME280;59836;52.132;5.442;2023-10-08T09:16:15;102674.13;;;15.27;95.47
71966;BME280;59836;52.132;5.442;2023-10-08T09:18:44;102670.31;;;15.28;95.08
71966;BME280;59836;52.132;5.442;2023-10-08T09:21:19;102668.94;;;15.31;95.85
71966;BME280;59836;52.132;5.442;2023-10-08T09:23:51;102674.19;;;15.32;95.74
71966;BME280;59836;52.132;5.442;2023-10-08T09:26:23;102668.44;;;15.34;94.76
71966;BME280;59836;52.132;5.442;2023-10-08T09:28:50;102670.59;;;15.32;94.06
71966;BME280;59836;52.132;5.442;2023-10-08T09:31:18;102677.72;;;15.33;94.44
71966;BME280;59836;52.132;5.442;2023-10-08T09:33:54;102695.78;;;15.34;94.39
71966;BME280;59836;52.132;5.442;2023-10-08T09:36:22;102683.75;;;15.35;94.05
71966;BME280;59836;52.132;5.442;2023-10-08T09:39:00;102685.69;;;15.34;93.99
71966;BME280;59836;52.132;5.442;2023-10-08T09:41:34;102696.63;;;15.34;94.11
71966;BME280;59836;52.132;5.442;2023-10-08T09:44:05;102695.25;;;15.37;94.00
71966;BME280;59836;52.132;5.442;2023-10-08T09:46:37;102696.06;;;15.38;94.15
71966;BME280;59836;52.132;5.442;2023-10-08T09:49:05;102693.41;;;15.43;95.64
71966;BME280;59836;52.132;5.442;2023-10-08T09:51:37;102698.63;;;15.44;96.32
71966;BME280;59836;52.132;5.442;2023-10-08T09:56:38;102694.03;;;15.50;95.33
71966;BME280;59836;52.132;5.442;2023-10-08T09:59:07;102683.66;;;15.52;95.59
71966;BME280;59836;52.132;5.442;2023-10-08T10:01:37;102687.22;;;15.53;94.88
71966;BME280;59836;52.132;5.442;2023-10-08T10:04:11;102694.03;;;15.50;94.50
71966;BME280;59836;52.132;5.442;2023-10-08T10:06:42;102685.81;;;15.50;94.22
71966;BME280;59836;52.132;5.442;2023-10-08T10:09:20;102673.78;;;15.51;94.89
71966;BME280;59836;52.132;5.442;2023-10-08T10:11:49;102667.81;;;15.54;95.02
71966;BME280;59836;52.132;5.442;2023-10-08T10:14:23;102672.75;;;15.57;95.23
71966;BME280;59836;52.132;5.442;2023-10-08T10:17:12;102681.53;;;15.59;95.04
71966;BME280;59836;52.132;5.442;2023-10-08T10:20:09;102679.38;;;15.61;94.86
71966;BME280;59836;52.132;5.442;2023-10-08T10:22:41;102681.84;;;15.63;95.28
71966;BME280;59836;52.132;5.442;2023-10-08T10:25:10;102691.44;;;15.65;95.07
71966;BME280;59836;52.132;5.442;2023-10-08T10:30:44;102696.91;;;15.65;95.48
71966;BME280;59836;52.132;5.442;2023-10-08T10:33:11;102685.16;;;15.65;95.06
71966;BME280;59836;52.132;5.442;2023-10-08T10:35:37;102678.84;;;15.64;95.34
71966;BME280;59836;52.132;5.442;2023-10-08T10:38:06;102681.06;;;15.68;95.00
71966;BME280;59836;52.132;5.442;2023-10-08T10:40:33;102687.09;;;15.70;95.63
71966;BME280;59836;52.132;5.442;2023-10-08T10:43:06;102694.22;;;15.71;95.35
71966;BME280;59836;52.132;5.442;2023-10-08T10:45:33;102692.06;;;15.73;95.90
71966;BME280;59836;52.132;5.442;2023-10-08T10:48:03;102694.78;;;15.73;95.44
71966;BME280;59836;52.132;5.442;2023-10-08T10:50:49;102700.84;;;15.75;95.41
71966;BME280;59836;52.132;5.442;2023-10-08T10:53:33;102695.13;;;15.76;96.39
71966;BME280;59836;52.132;5.442;2023-10-08T10:56:00;102690.22;;;15.78;96.89
71966;BME280;59836;52.132;5.442;2023-10-08T10:58:35;102682.81;;;15.79;95.95
71966;BME280;59836;52.132;5.442;2023-10-08T11:01:06;102689.94;;;15.80;96.22
71966;BME280;59836;52.132;5.442;2023-10-08T11:03:51;102681.22;;;15.83;96.11
71966;BME280;59836;52.132;5.442;2023-10-08T11:06:19;102672.75;;;15.85;96.41
71966;BME280;59836;52.132;5.442;2023-10-08T11:08:50;102668.69;;;15.87;96.37
71966;BME280;59836;52.132;5.442;2023-10-08T11:11:25;102668.69;;;15.87;96.04
71966;BME280;59836;52.132;5.442;2023-10-08T11:13:57;102676.91;;;15.87;95.69
71966;BME280;59836;52.132;5.442;2023-10-08T11:16:27;102684.03;;;15.88;95.88
71966;BME280;59836;52.132;5.442;2023-10-08T11:18:58;102676.66;;;15.89;95.67
71966;BME280;59836;52.132;5.442;2023-10-08T11:21:28;102674.72;;;15.89;96.57
71966;BME280;59836;52.132;5.442;2023-10-08T11:24:00;102680.19;;;15.89;96.66
71966;BME280;59836;52.132;5.442;2023-10-08T11:26:36;102678.03;;;15.91;96.34
71966;BME280;59836;52.132;5.442;2023-10-08T11:29:06;102680.78;;;15.91;94.99
71966;BME280;59836;52.132;5.442;2023-10-08T11:31:41;102675.28;;;15.91;95.49
71966;BME280;59836;52.132;5.442;2023-10-08T11:34:10;102670.91;;;15.90;96.40
71966;BME280;59836;52.132;5.442;2023-10-08T11:36:40;102668.19;;;15.90;96.32
71966;BME280;59836;52.132;5.442;2023-10-08T11:39:16;102670.91;;;15.90;96.25
71966;BME280;59836;52.132;5.442;2023-10-08T11:41:59;102664.06;;;15.88;96.70
71966;BME280;59836;52.132;5.442;2023-10-08T11:44:31;102674.41;;;15.86;96.22
71966;BME280;59836;52.132;5.442;2023-10-08T11:47:03;102673.56;;;15.85;96.64
71966;BME280;59836;52.132;5.442;2023-10-08T11:49:47;102664.28;;;15.86;96.95
71966;BME280;59836;52.132;5.442;2023-10-08T11:52:17;102654.19;;;15.87;97.02
71966;BME280;59836;52.132;5.442;2023-10-08T11:54:48;102663.78;;;15.89;97.57
71966;BME280;59836;52.132;5.442;2023-10-08T11:57:16;102643.53;;;15.90;97.77
71966;BME280;59836;52.132;5.442;2023-10-08T11:59:49;102652.31;;;15.92;97.12
71966;BME280;59836;52.132;5.442;2023-10-08T12:02:19;102650.66;;;15.91;96.50
71966;BME280;59836;52.132;5.442;2023-10-08T12:04:47;102653.13;;;15.93;96.16
71966;BME280;59836;52.132;5.442;2023-10-08T12:07:14;102634.53;;;15.95;96.18
71966;BME280;59836;52.132;5.442;2023-10-08T12:09:44;102627.16;;;15.96;95.86
71966;BME280;59836;52.132;5.442;2023-10-08T12:12:15;102620.59;;;15.97;96.16
71966;BME280;59836;52.132;5.442;2023-10-08T12:14:42;102612.13;;;15.98;96.08
71966;BME280;59836;52.132;5.442;2023-10-08T12:17:12;102610.78;;;16.01;96.36
71966;BME280;59836;52.132;5.442;2023-10-08T12:19:38;102605.31;;;16.01;96.12
71966;BME280;59836;52.132;5.442;2023-10-08T12:22:09;102600.94;;;16.00;96.48
71966;BME280;59836;52.132;5.442;2023-10-08T12:24:40;102595.44;;;16.00;96.29
71966;BME280;59836;52.132;5.442;2023-10-08T12:27:08;102593.81;;;15.99;96.17
71966;BME280;59836;52.132;5.442;2023-10-08T12:29:38;102595.69;;;15.98;95.64
71966;BME280;59836;52.132;5.442;2023-10-08T12:32:05;102594.06;;;15.97;96.49
71966;BME280;59836;52.132;5.442;2023-10-08T12:34:44;102587.78;;;15.97;97.14
71966;BME280;59836;52.132;5.442;2023-10-08T12:37:10;102585.59;;;15.99;97.30
71966;BME280;59836;52.132;5.442;2023-10-08T12:39:41;102589.41;;;15.98;97.03
71966;BME280;59836;52.132;5.442;2023-10-08T12:42:23;102582.59;;;16.00;97.78
71966;BME280;59836;52.132;5.442;2023-10-08T12:44:51;102575.78;;;16.03;97.59
71966;BME280;59836;52.132;5.442;2023-10-08T12:47:18;102571.09;;;16.03;97.61
71966;BME280;59836;52.132;5.442;2023-10-08T12:49:45;102579.06;;;16.05;97.86
71966;BME280;59836;52.132;5.442;2023-10-08T12:52:13;102568.94;;;16.05;97.80
71966;BME280;59836;52.132;5.442;2023-10-08T12:54:41;102565.94;;;16.07;97.68
71966;BME280;59836;52.132;5.442;2023-10-08T12:57:11;102557.19;;;16.05;97.48
71966;BME280;59836;52.132;5.442;2023-10-08T12:59:42;102564.28;;;16.06;98.04
71966;BME280;59836;52.132;5.442;2023-10-08T13:02:14;102560.16;;;16.03;97.65
71966;BME280;59836;52.132;5.442;2023-10-08T13:04:45;102554.69;;;16.03;97.87
71966;BME280;59836;52.132;5.442;2023-10-08T13:07:12;102558.25;;;16.04;97.27
71966;BME280;59836;52.132;5.442;2023-10-08T13:09:40;102566.47;;;16.04;97.44
71966;BME280;59836;52.132;5.442;2023-10-08T13:12:09;102554.44;;;16.05;97.17
71966;BME280;59836;52.132;5.442;2023-10-08T13:14:36;102554.69;;;16.03;96.28
71966;BME280;59836;52.132;5.442;2023-10-08T13:17:03;102564.81;;;16.03;97.16
71966;BME280;59836;52.132;5.442;2023-10-08T13:19:30;102555.53;;;16.04;97.26